Main page


Airports :

Hawarden, Wales

Hawarden Airport

latitude: 53-10N, longitude: 002-59W, elevation: 10 m

Current weather observation

The report was made 42 minutes ago, at 22:20 UTC
Wind 13 kt from the South/Southeast
Temperature 8°C
Humidity 76%
Pressure 1004 hPa
Visibility 10 km or more
Scattered clouds at a height of 2200 ft

METAR: EGNR 222220Z 16013KT 9999 SCT022 08/04 Q1004

Time: 23:02 (23:02 UTC)


The report was made 2 hours and 27 minutes ago, at 20:35 UTC
Forecast valid from 22 at 21 UTC to 22 at 23 UTC
Wind 12 kt from the South
Visibility 10 km or more
Broken clouds at a height of 2000 ft
Probability 40% :
from 22 at 21 UTC to 22 at 23 UTC
Wind 15 kt from the South with gusts up to 25 kt
Visibility: 7000 m
Broken clouds at a height of 1400 ft

TAF: EGNR 222035Z 2221/2223 17012KT 9999 BKN020 PROB40 TEMPO 2221/2223 17015G25KT 7000 RA BKN014

Weather observations and forecasts of more than 4000 airports (METAR and TAF reports).

The available stations are represented by yellow and red dots on the map.

Hover mouse over dot to see the name of the station.

Then click to see weather observations and forecasts.

To change the map : click on the green buttons with a black cross to zoom in, on the green button with a dash to zoom out, or on the green arrows for adjacent maps.